sensor_id;sensor_type;location;lat;lon;timestamp;pressure;altitude;pressure_sealevel;temperature
37536;BMP180;23379;51.554;6.736;2023-07-13T00:00:12;100950.00;;;16.30
37536;BMP180;23379;51.554;6.736;2023-07-13T00:02:41;100941.00;;;16.30
37536;BMP180;23379;51.554;6.736;2023-07-13T00:05:06;100949.00;;;16.60
37536;BMP180;23379;51.554;6.736;2023-07-13T00:07:32;100953.00;;;16.50
37536;BMP180;23379;51.554;6.736;2023-07-13T00:09:57;100957.00;;;16.40
37536;BMP180;23379;51.554;6.736;2023-07-13T00:12:33;100964.00;;;16.30
37536;BMP180;23379;51.554;6.736;2023-07-13T00:15:01;100957.00;;;16.40
37536;BMP180;23379;51.554;6.736;2023-07-13T00:17:28;100951.00;;;16.50
37536;BMP180;23379;51.554;6.736;2023-07-13T00:19:55;100948.00;;;16.50
37536;BMP180;23379;51.554;6.736;2023-07-13T00:22:21;100946.00;;;16.50
37536;BMP180;23379;51.554;6.736;2023-07-13T00:24:47;100946.00;;;16.30
37536;BMP180;23379;51.554;6.736;2023-07-13T00:27:12;100954.00;;;16.10
37536;BMP180;23379;51.554;6.736;2023-07-13T00:29:38;100943.00;;;16.30
37536;BMP180;23379;51.554;6.736;2023-07-13T00:32:05;100955.00;;;16.30
37536;BMP180;23379;51.554;6.736;2023-07-13T00:34:31;100953.00;;;16.30
37536;BMP180;23379;51.554;6.736;2023-07-13T00:36:57;100940.00;;;16.40
37536;BMP180;23379;51.554;6.736;2023-07-13T00:39:23;100956.00;;;16.30
37536;BMP180;23379;51.554;6.736;2023-07-13T00:41:49;100963.00;;;16.40
37536;BMP180;23379;51.554;6.736;2023-07-13T00:44:15;100956.00;;;16.50
37536;BMP180;23379;51.554;6.736;2023-07-13T00:46:42;100937.00;;;16.50
37536;BMP180;23379;51.554;6.736;2023-07-13T00:49:11;100950.00;;;16.40
37536;BMP180;23379;51.554;6.736;2023-07-13T00:51:47;100972.00;;;16.40
37536;BMP180;23379;51.554;6.736;2023-07-13T00:54:17;100969.00;;;16.40
37536;BMP180;23379;51.554;6.736;2023-07-13T00:56:44;100954.00;;;16.40
37536;BMP180;23379;51.554;6.736;2023-07-13T00:59:11;100967.00;;;16.30
37536;BMP180;23379;51.554;6.736;2023-07-13T01:01:37;100966.00;;;16.30
37536;BMP180;23379;51.554;6.736;2023-07-13T01:04:04;100945.00;;;16.30
37536;BMP180;23379;51.554;6.736;2023-07-13T01:06:34;100932.00;;;16.40
37536;BMP180;23379;51.554;6.736;2023-07-13T01:09:00;100958.00;;;16.30
37536;BMP180;23379;51.554;6.736;2023-07-13T01:11:26;100961.00;;;16.40
37536;BMP180;23379;51.554;6.736;2023-07-13T01:13:51;100951.00;;;16.30
37536;BMP180;23379;51.554;6.736;2023-07-13T01:16:28;100970.00;;;16.40
37536;BMP180;23379;51.554;6.736;2023-07-13T01:18:55;100964.00;;;16.30
37536;BMP180;23379;51.554;6.736;2023-07-13T01:21:23;100963.00;;;16.20
37536;BMP180;23379;51.554;6.736;2023-07-13T01:23:49;100972.00;;;16.20
37536;BMP180;23379;51.554;6.736;2023-07-13T01:26:15;100972.00;;;16.00
37536;BMP180;23379;51.554;6.736;2023-07-13T01:28:40;100953.00;;;15.80
37536;BMP180;23379;51.554;6.736;2023-07-13T01:31:05;100945.00;;;15.90
37536;BMP180;23379;51.554;6.736;2023-07-13T01:33:31;100957.00;;;15.80
37536;BMP180;23379;51.554;6.736;2023-07-13T01:35:56;100950.00;;;15.90
37536;BMP180;23379;51.554;6.736;2023-07-13T01:38:25;100968.00;;;16.10
37536;BMP180;23379;51.554;6.736;2023-07-13T01:40:52;100969.00;;;16.00
37536;BMP180;23379;51.554;6.736;2023-07-13T01:43:18;100969.00;;;16.00
37536;BMP180;23379;51.554;6.736;2023-07-13T01:45:44;100959.00;;;16.10
37536;BMP180;23379;51.554;6.736;2023-07-13T01:48:11;100961.00;;;16.00
37536;BMP180;23379;51.554;6.736;2023-07-13T01:50:37;100968.00;;;15.90
37536;BMP180;23379;51.554;6.736;2023-07-13T01:53:03;100951.00;;;15.90
37536;BMP180;23379;51.554;6.736;2023-07-13T01:55:28;100958.00;;;15.80
37536;BMP180;23379;51.554;6.736;2023-07-13T01:57:54;100969.00;;;15.80
37536;BMP180;23379;51.554;6.736;2023-07-13T02:00:19;100963.00;;;15.70
37536;BMP180;23379;51.554;6.736;2023-07-13T02:02:45;100971.00;;;15.70
37536;BMP180;23379;51.554;6.736;2023-07-13T02:05:11;100964.00;;;15.90
37536;BMP180;23379;51.554;6.736;2023-07-13T02:07:37;100962.00;;;16.00
37536;BMP180;23379;51.554;6.736;2023-07-13T02:10:02;100973.00;;;15.90
37536;BMP180;23379;51.554;6.736;2023-07-13T02:12:28;100985.00;;;15.70
37536;BMP180;23379;51.554;6.736;2023-07-13T02:14:53;100973.00;;;15.70
37536;BMP180;23379;51.554;6.736;2023-07-13T02:17:19;100964.00;;;15.60
37536;BMP180;23379;51.554;6.736;2023-07-13T02:19:44;100960.00;;;15.70
37536;BMP180;23379;51.554;6.736;2023-07-13T02:22:09;100963.00;;;15.60
37536;BMP180;23379;51.554;6.736;2023-07-13T02:24:35;100974.00;;;15.60
37536;BMP180;23379;51.554;6.736;2023-07-13T02:27:00;100973.00;;;15.50
37536;BMP180;23379;51.554;6.736;2023-07-13T02:29:25;100961.00;;;15.60
37536;BMP180;23379;51.554;6.736;2023-07-13T02:31:51;100966.00;;;15.60
37536;BMP180;23379;51.554;6.736;2023-07-13T02:34:16;100974.00;;;15.60
37536;BMP180;23379;51.554;6.736;2023-07-13T02:36:41;100963.00;;;15.80
37536;BMP180;23379;51.554;6.736;2023-07-13T02:39:08;100987.00;;;15.80
37536;BMP180;23379;51.554;6.736;2023-07-13T02:41:33;100967.00;;;15.70
37536;BMP180;23379;51.554;6.736;2023-07-13T02:43:59;100973.00;;;15.60
37536;BMP180;23379;51.554;6.736;2023-07-13T02:46:33;100967.00;;;15.60
37536;BMP180;23379;51.554;6.736;2023-07-13T02:48:59;100973.00;;;15.40
37536;BMP180;23379;51.554;6.736;2023-07-13T02:51:24;100978.00;;;15.40
37536;BMP180;23379;51.554;6.736;2023-07-13T02:53:50;100976.00;;;15.40
37536;BMP180;23379;51.554;6.736;2023-07-13T02:56:15;100964.00;;;15.50
37536;BMP180;23379;51.554;6.736;2023-07-13T02:58:40;100985.00;;;15.40
37536;BMP180;23379;51.554;6.736;2023-07-13T03:01:08;100981.00;;;15.40
37536;BMP180;23379;51.554;6.736;2023-07-13T03:03:34;100975.00;;;15.30
37536;BMP180;23379;51.554;6.736;2023-07-13T03:06:01;100981.00;;;15.40
37536;BMP180;23379;51.554;6.736;2023-07-13T03:08:28;100984.00;;;15.40
37536;BMP180;23379;51.554;6.736;2023-07-13T03:11:06;100993.00;;;15.50
37536;BMP180;23379;51.554;6.736;2023-07-13T03:13:32;100977.00;;;15.40
37536;BMP180;23379;51.554;6.736;2023-07-13T03:19:19;100980.00;;;15.40
37536;BMP180;23379;51.554;6.736;2023-07-13T03:21:45;100978.00;;;15.70
37536;BMP180;23379;51.554;6.736;2023-07-13T03:24:10;100978.00;;;15.70
37536;BMP180;23379;51.554;6.736;2023-07-13T03:26:36;100966.00;;;15.50
37536;BMP180;23379;51.554;6.736;2023-07-13T03:29:02;100987.00;;;15.40
37536;BMP180;23379;51.554;6.736;2023-07-13T03:31:33;100977.00;;;15.40
37536;BMP180;23379;51.554;6.736;2023-07-13T03:33:59;101004.00;;;15.50
37536;BMP180;23379;51.554;6.736;2023-07-13T03:36:28;100991.00;;;15.50
37536;BMP180;23379;51.554;6.736;2023-07-13T03:38:57;100991.00;;;15.50
37536;BMP180;23379;51.554;6.736;2023-07-13T03:41:24;101000.00;;;15.50
37536;BMP180;23379;51.554;6.736;2023-07-13T03:43:49;101003.00;;;15.60
37536;BMP180;23379;51.554;6.736;2023-07-13T03:46:15;101002.00;;;15.70
37536;BMP180;23379;51.554;6.736;2023-07-13T03:48:43;101001.00;;;15.70
37536;BMP180;23379;51.554;6.736;2023-07-13T03:51:09;101011.00;;;15.40
37536;BMP180;23379;51.554;6.736;2023-07-13T03:53:38;101009.00;;;15.50
37536;BMP180;23379;51.554;6.736;2023-07-13T03:56:04;101008.00;;;15.50
37536;BMP180;23379;51.554;6.736;2023-07-13T03:58:38;101014.00;;;15.30
37536;BMP180;23379;51.554;6.736;2023-07-13T04:01:06;101017.00;;;15.30
37536;BMP180;23379;51.554;6.736;2023-07-13T04:03:32;101003.00;;;15.30
37536;BMP180;23379;51.554;6.736;2023-07-13T04:05:59;101010.00;;;15.40
37536;BMP180;23379;51.554;6.736;2023-07-13T04:08:29;101010.00;;;15.50
37536;BMP180;23379;51.554;6.736;2023-07-13T04:10:55;101002.00;;;15.30
37536;BMP180;23379;51.554;6.736;2023-07-13T04:13:21;101011.00;;;15.50
37536;BMP180;23379;51.554;6.736;2023-07-13T04:15:46;100998.00;;;15.50
37536;BMP180;23379;51.554;6.736;2023-07-13T04:18:12;101004.00;;;15.40
37536;BMP180;23379;51.554;6.736;2023-07-13T04:20:37;101005.00;;;15.60
37536;BMP180;23379;51.554;6.736;2023-07-13T04:23:03;101032.00;;;15.40
37536;BMP180;23379;51.554;6.736;2023-07-13T04:25:28;101032.00;;;15.50
37536;BMP180;23379;51.554;6.736;2023-07-13T04:27:54;101023.00;;;15.60
37536;BMP180;23379;51.554;6.736;2023-07-13T04:30:20;101050.00;;;15.50
37536;BMP180;23379;51.554;6.736;2023-07-13T04:32:46;101032.00;;;15.60
37536;BMP180;23379;51.554;6.736;2023-07-13T04:35:11;101020.00;;;15.40
37536;BMP180;23379;51.554;6.736;2023-07-13T04:37:37;100988.00;;;15.40
37536;BMP180;23379;51.554;6.736;2023-07-13T04:40:03;101050.00;;;15.40
37536;BMP180;23379;51.554;6.736;2023-07-13T04:42:29;101042.00;;;15.80
37536;BMP180;23379;51.554;6.736;2023-07-13T04:44:55;101038.00;;;16.00
37536;BMP180;23379;51.554;6.736;2023-07-13T04:47:20;101044.00;;;15.90
37536;BMP180;23379;51.554;6.736;2023-07-13T04:49:45;101030.00;;;15.70
37536;BMP180;23379;51.554;6.736;2023-07-13T04:52:11;101055.00;;;15.80
37536;BMP180;23379;51.554;6.736;2023-07-13T04:54:36;101054.00;;;15.80
37536;BMP180;23379;51.554;6.736;2023-07-13T04:57:03;101044.00;;;16.00
37536;BMP180;23379;51.554;6.736;2023-07-13T04:59:29;101039.00;;;15.80
37536;BMP180;23379;51.554;6.736;2023-07-13T05:01:55;101043.00;;;15.90
37536;BMP180;23379;51.554;6.736;2023-07-13T05:04:20;101044.00;;;15.90
37536;BMP180;23379;51.554;6.736;2023-07-13T05:06:45;101031.00;;;16.00
37536;BMP180;23379;51.554;6.736;2023-07-13T05:09:11;101054.00;;;16.10
37536;BMP180;23379;51.554;6.736;2023-07-13T05:11:37;101052.00;;;16.10
37536;BMP180;23379;51.554;6.736;2023-07-13T05:14:03;101053.00;;;16.00
37536;BMP180;23379;51.554;6.736;2023-07-13T05:16:28;101045.00;;;16.00
37536;BMP180;23379;51.554;6.736;2023-07-13T05:18:54;101051.00;;;16.30
37536;BMP180;23379;51.554;6.736;2023-07-13T05:21:19;101060.00;;;16.10
37536;BMP180;23379;51.554;6.736;2023-07-13T05:23:45;101039.00;;;16.40
37536;BMP180;23379;51.554;6.736;2023-07-13T05:26:11;101054.00;;;16.50
37536;BMP180;23379;51.554;6.736;2023-07-13T05:28:37;101061.00;;;16.50
37536;BMP180;23379;51.554;6.736;2023-07-13T05:31:02;101056.00;;;16.50
37536;BMP180;23379;51.554;6.736;2023-07-13T05:33:28;101049.00;;;16.40
37536;BMP180;23379;51.554;6.736;2023-07-13T05:35:53;101057.00;;;17.00
37536;BMP180;23379;51.554;6.736;2023-07-13T05:38:19;101078.00;;;17.10
37536;BMP180;23379;51.554;6.736;2023-07-13T05:40:45;101065.00;;;17.20
37536;BMP180;23379;51.554;6.736;2023-07-13T05:43:11;101091.00;;;17.10
37536;BMP180;23379;51.554;6.736;2023-07-13T05:45:37;101091.00;;;17.10
37536;BMP180;23379;51.554;6.736;2023-07-13T05:48:02;101088.00;;;16.90
37536;BMP180;23379;51.554;6.736;2023-07-13T05:50:27;101083.00;;;17.20
37536;BMP180;23379;51.554;6.736;2023-07-13T05:52:53;101086.00;;;17.20
37536;BMP180;23379;51.554;6.736;2023-07-13T05:55:19;101089.00;;;17.20
37536;BMP180;23379;51.554;6.736;2023-07-13T05:57:45;101083.00;;;17.60
37536;BMP180;23379;51.554;6.736;2023-07-13T06:00:11;101075.00;;;17.40
37536;BMP180;23379;51.554;6.736;2023-07-13T06:02:36;101095.00;;;17.40
37536;BMP180;23379;51.554;6.736;2023-07-13T06:05:01;101106.00;;;17.50
37536;BMP180;23379;51.554;6.736;2023-07-13T06:07:27;101105.00;;;17.50
37536;BMP180;23379;51.554;6.736;2023-07-13T06:09:52;101124.00;;;17.70
37536;BMP180;23379;51.554;6.736;2023-07-13T06:12:17;101124.00;;;17.60
37536;BMP180;23379;51.554;6.736;2023-07-13T06:14:43;101118.00;;;17.70
37536;BMP180;23379;51.554;6.736;2023-07-13T06:17:08;101133.00;;;17.70
37536;BMP180;23379;51.554;6.736;2023-07-13T06:19:34;101126.00;;;17.50
37536;BMP180;23379;51.554;6.736;2023-07-13T06:21:59;101136.00;;;17.60
37536;BMP180;23379;51.554;6.736;2023-07-13T06:24:25;101133.00;;;17.60
37536;BMP180;23379;51.554;6.736;2023-07-13T06:26:50;101127.00;;;18.00
37536;BMP180;23379;51.554;6.736;2023-07-13T06:29:16;101128.00;;;17.70
37536;BMP180;23379;51.554;6.736;2023-07-13T06:31:41;101146.00;;;17.70
37536;BMP180;23379;51.554;6.736;2023-07-13T06:34:07;101142.00;;;17.40
37536;BMP180;23379;51.554;6.736;2023-07-13T06:36:32;101150.00;;;17.60
37536;BMP180;23379;51.554;6.736;2023-07-13T06:38:57;101144.00;;;17.60
37536;BMP180;23379;51.554;6.736;2023-07-13T06:41:23;101150.00;;;17.80
37536;BMP180;23379;51.554;6.736;2023-07-13T06:43:51;101149.00;;;17.90
37536;BMP180;23379;51.554;6.736;2023-07-13T06:46:16;101130.00;;;18.50
37536;BMP180;23379;51.554;6.736;2023-07-13T06:48:41;101145.00;;;18.90
37536;BMP180;23379;51.554;6.736;2023-07-13T06:51:07;101150.00;;;18.90
37536;BMP180;23379;51.554;6.736;2023-07-13T06:53:33;101143.00;;;18.80
37536;BMP180;23379;51.554;6.736;2023-07-13T06:55:58;101144.00;;;18.90
37536;BMP180;23379;51.554;6.736;2023-07-13T06:58:23;101148.00;;;19.00
37536;BMP180;23379;51.554;6.736;2023-07-13T07:00:50;101157.00;;;18.80
37536;BMP180;23379;51.554;6.736;2023-07-13T07:03:16;101162.00;;;18.70
37536;BMP180;23379;51.554;6.736;2023-07-13T07:05:41;101164.00;;;18.60
37536;BMP180;23379;51.554;6.736;2023-07-13T07:08:07;101170.00;;;18.70
37536;BMP180;23379;51.554;6.736;2023-07-13T07:10:33;101167.00;;;18.40
37536;BMP180;23379;51.554;6.736;2023-07-13T07:12:59;101164.00;;;18.70
37536;BMP180;23379;51.554;6.736;2023-07-13T07:15:25;101172.00;;;18.30
37536;BMP180;23379;51.554;6.736;2023-07-13T07:17:51;101152.00;;;18.40
37536;BMP180;23379;51.554;6.736;2023-07-13T07:20:16;101162.00;;;18.30
37536;BMP180;23379;51.554;6.736;2023-07-13T07:22:41;101159.00;;;18.60
37536;BMP180;23379;51.554;6.736;2023-07-13T07:25:07;101172.00;;;18.90
37536;BMP180;23379;51.554;6.736;2023-07-13T07:27:32;101177.00;;;19.10
37536;BMP180;23379;51.554;6.736;2023-07-13T07:29:58;101167.00;;;18.70
37536;BMP180;23379;51.554;6.736;2023-07-13T07:32:24;101154.00;;;18.60
37536;BMP180;23379;51.554;6.736;2023-07-13T07:34:49;101166.00;;;19.00
37536;BMP180;23379;51.554;6.736;2023-07-13T07:37:14;101134.00;;;18.80
37536;BMP180;23379;51.554;6.736;2023-07-13T07:39:40;101174.00;;;19.30
37536;BMP180;23379;51.554;6.736;2023-07-13T07:42:05;101174.00;;;19.10
37536;BMP180;23379;51.554;6.736;2023-07-13T07:44:31;101168.00;;;19.30
37536;BMP180;23379;51.554;6.736;2023-07-13T07:46:57;101170.00;;;19.90
37536;BMP180;23379;51.554;6.736;2023-07-13T07:49:23;101164.00;;;20.00
37536;BMP180;23379;51.554;6.736;2023-07-13T07:51:48;101180.00;;;20.30
37536;BMP180;23379;51.554;6.736;2023-07-13T07:54:14;101182.00;;;20.80
37536;BMP180;23379;51.554;6.736;2023-07-13T07:56:40;101170.00;;;20.50
37536;BMP180;23379;51.554;6.736;2023-07-13T07:59:05;101161.00;;;20.90
37536;BMP180;23379;51.554;6.736;2023-07-13T08:01:30;101164.00;;;20.30
37536;BMP180;23379;51.554;6.736;2023-07-13T08:03:56;101180.00;;;19.90
37536;BMP180;23379;51.554;6.736;2023-07-13T08:06:21;101162.00;;;20.10
37536;BMP180;23379;51.554;6.736;2023-07-13T08:08:47;101170.00;;;20.60
37536;BMP180;23379;51.554;6.736;2023-07-13T08:13:40;101169.00;;;21.30
37536;BMP180;23379;51.554;6.736;2023-07-13T08:16:06;101178.00;;;21.40
37536;BMP180;23379;51.554;6.736;2023-07-13T08:18:32;101170.00;;;21.00
37536;BMP180;23379;51.554;6.736;2023-07-13T08:20:57;101166.00;;;20.70
37536;BMP180;23379;51.554;6.736;2023-07-13T08:31:57;101152.00;;;21.10
37536;BMP180;23379;51.554;6.736;2023-07-13T08:34:22;101163.00;;;20.70
37536;BMP180;23379;51.554;6.736;2023-07-13T08:36:48;101144.00;;;20.70
37536;BMP180;23379;51.554;6.736;2023-07-13T08:39:13;101150.00;;;20.90
37536;BMP180;23379;51.554;6.736;2023-07-13T08:41:39;101178.00;;;20.60
37536;BMP180;23379;51.554;6.736;2023-07-13T08:44:11;101187.00;;;21.30
37536;BMP180;23379;51.554;6.736;2023-07-13T08:46:42;101143.00;;;21.80
37536;BMP180;23379;51.554;6.736;2023-07-13T08:49:17;101163.00;;;22.50
37536;BMP180;23379;51.554;6.736;2023-07-13T08:51:49;101175.00;;;22.20
37536;BMP180;23379;51.554;6.736;2023-07-13T08:54:22;101149.00;;;21.90
37536;BMP180;23379;51.554;6.736;2023-07-13T08:56:48;101152.00;;;22.20
37536;BMP180;23379;51.554;6.736;2023-07-13T08:59:20;101167.00;;;22.10
37536;BMP180;23379;51.554;6.736;2023-07-13T09:05:10;101170.00;;;22.10
37536;BMP180;23379;51.554;6.736;2023-07-13T09:08:10;101177.00;;;22.00
37536;BMP180;23379;51.554;6.736;2023-07-13T09:10:49;101163.00;;;22.30
37536;BMP180;23379;51.554;6.736;2023-07-13T09:13:37;101180.00;;;21.40
37536;BMP180;23379;51.554;6.736;2023-07-13T09:16:05;101168.00;;;21.70
37536;BMP180;23379;51.554;6.736;2023-07-13T09:18:52;101178.00;;;21.90
37536;BMP180;23379;51.554;6.736;2023-07-13T09:21:32;101180.00;;;22.30
37536;BMP180;23379;51.554;6.736;2023-07-13T09:26:50;101181.00;;;23.70
37536;BMP180;23379;51.554;6.736;2023-07-13T09:29:28;101193.00;;;23.10
37536;BMP180;23379;51.554;6.736;2023-07-13T09:31:57;101190.00;;;22.60
37536;BMP180;23379;51.554;6.736;2023-07-13T09:34:24;101172.00;;;21.90
37536;BMP180;23379;51.554;6.736;2023-07-13T09:36:49;101184.00;;;21.60
37536;BMP180;23379;51.554;6.736;2023-07-13T09:42:07;101187.00;;;21.60
37536;BMP180;23379;51.554;6.736;2023-07-13T09:44:42;101187.00;;;21.70
37536;BMP180;23379;51.554;6.736;2023-07-13T09:47:20;101189.00;;;22.00
37536;BMP180;23379;51.554;6.736;2023-07-13T09:49:54;101185.00;;;22.40
37536;BMP180;23379;51.554;6.736;2023-07-13T09:52:20;101178.00;;;23.00
37536;BMP180;23379;51.554;6.736;2023-07-13T09:54:50;101195.00;;;23.00
37536;BMP180;23379;51.554;6.736;2023-07-13T09:57:18;101187.00;;;23.10
37536;BMP180;23379;51.554;6.736;2023-07-13T09:59:45;101182.00;;;23.60
37536;BMP180;23379;51.554;6.736;2023-07-13T10:02:35;101182.00;;;23.60
37536;BMP180;23379;51.554;6.736;2023-07-13T10:05:26;101189.00;;;23.60
37536;BMP180;23379;51.554;6.736;2023-07-13T10:07:55;101176.00;;;23.70
37536;BMP180;23379;51.554;6.736;2023-07-13T10:10:22;101198.00;;;23.20
37536;BMP180;23379;51.554;6.736;2023-07-13T10:12:49;101186.00;;;23.20
37536;BMP180;23379;51.554;6.736;2023-07-13T10:15:22;101193.00;;;24.00
37536;BMP180;23379;51.554;6.736;2023-07-13T10:17:49;101184.00;;;25.10
37536;BMP180;23379;51.554;6.736;2023-07-13T10:20:16;101181.00;;;25.10
37536;BMP180;23379;51.554;6.736;2023-07-13T10:22:53;101192.00;;;25.10
37536;BMP180;23379;51.554;6.736;2023-07-13T10:25:22;101186.00;;;25.50
37536;BMP180;23379;51.554;6.736;2023-07-13T10:28:00;101164.00;;;24.50
37536;BMP180;23379;51.554;6.736;2023-07-13T10:30:31;101188.00;;;25.00
37536;BMP180;23379;51.554;6.736;2023-07-13T10:33:10;101180.00;;;25.00
37536;BMP180;23379;51.554;6.736;2023-07-13T10:35:37;101185.00;;;25.10
37536;BMP180;23379;51.554;6.736;2023-07-13T10:38:11;101213.00;;;24.70
37536;BMP180;23379;51.554;6.736;2023-07-13T10:43:35;101193.00;;;25.50
37536;BMP180;23379;51.554;6.736;2023-07-13T10:46:04;101180.00;;;25.60
37536;BMP180;23379;51.554;6.736;2023-07-13T10:48:31;101203.00;;;24.50
37536;BMP180;23379;51.554;6.736;2023-07-13T10:50:59;101196.00;;;25.80
37536;BMP180;23379;51.554;6.736;2023-07-13T10:53:37;101197.00;;;26.10
37536;BMP180;23379;51.554;6.736;2023-07-13T10:58:40;101185.00;;;27.00
37536;BMP180;23379;51.554;6.736;2023-07-13T11:03:34;101202.00;;;25.60
37536;BMP180;23379;51.554;6.736;2023-07-13T11:08:57;101190.00;;;26.70
37536;BMP180;23379;51.554;6.736;2023-07-13T11:18:47;101173.00;;;28.30
37536;BMP180;23379;51.554;6.736;2023-07-13T11:21:19;101204.00;;;28.30
37536;BMP180;23379;51.554;6.736;2023-07-13T11:23:52;101201.00;;;28.70
37536;BMP180;23379;51.554;6.736;2023-07-13T11:29:52;101179.00;;;27.10
37536;BMP180;23379;51.554;6.736;2023-07-13T11:31:59;101179.00;;;27.70
37536;BMP180;23379;51.554;6.736;2023-07-13T11:34:35;101173.00;;;28.00
37536;BMP180;23379;51.554;6.736;2023-07-13T11:37:01;101183.00;;;28.50
37536;BMP180;23379;51.554;6.736;2023-07-13T11:39:32;101184.00;;;26.30
37536;BMP180;23379;51.554;6.736;2023-07-13T11:42:01;101161.00;;;25.90
37536;BMP180;23379;51.554;6.736;2023-07-13T11:44:29;101179.00;;;26.00
37536;BMP180;23379;51.554;6.736;2023-07-13T11:46:57;101185.00;;;26.50
37536;BMP180;23379;51.554;6.736;2023-07-13T11:49:30;101197.00;;;27.40
37536;BMP180;23379;51.554;6.736;2023-07-13T11:51:56;101183.00;;;26.90
37536;BMP180;23379;51.554;6.736;2023-07-13T11:54:46;101187.00;;;26.70
37536;BMP180;23379;51.554;6.736;2023-07-13T11:57:30;101188.00;;;27.00
37536;BMP180;23379;51.554;6.736;2023-07-13T12:00:00;101172.00;;;26.20
37536;BMP180;23379;51.554;6.736;2023-07-13T12:02:31;101168.00;;;27.40
37536;BMP180;23379;51.554;6.736;2023-07-13T12:04:58;101159.00;;;27.10
37536;BMP180;23379;51.554;6.736;2023-07-13T12:07:28;101193.00;;;25.90
37536;BMP180;23379;51.554;6.736;2023-07-13T12:10:00;101155.00;;;24.50
37536;BMP180;23379;51.554;6.736;2023-07-13T12:12:28;101152.00;;;24.50
37536;BMP180;23379;51.554;6.736;2023-07-13T12:14:54;101179.00;;;25.90
37536;BMP180;23379;51.554;6.736;2023-07-13T12:17:22;101188.00;;;26.50
37536;BMP180;23379;51.554;6.736;2023-07-13T12:19:48;101182.00;;;25.70
37536;BMP180;23379;51.554;6.736;2023-07-13T12:22:17;101148.00;;;26.40
37536;BMP180;23379;51.554;6.736;2023-07-13T12:24:43;101179.00;;;27.00
37536;BMP180;23379;51.554;6.736;2023-07-13T12:27:24;101180.00;;;27.70
37536;BMP180;23379;51.554;6.736;2023-07-13T12:29:59;101181.00;;;26.70
37536;BMP180;23379;51.554;6.736;2023-07-13T12:32:26;101179.00;;;26.20
37536;BMP180;23379;51.554;6.736;2023-07-13T12:34:55;101177.00;;;26.00
37536;BMP180;23379;51.554;6.736;2023-07-13T12:37:21;101186.00;;;25.30
37536;BMP180;23379;51.554;6.736;2023-07-13T12:39:48;101170.00;;;24.20
37536;BMP180;23379;51.554;6.736;2023-07-13T12:44:41;101167.00;;;23.00
37536;BMP180;23379;51.554;6.736;2023-07-13T12:47:15;101221.00;;;22.80
37536;BMP180;23379;51.554;6.736;2023-07-13T12:49:43;101249.00;;;21.90
37536;BMP180;23379;51.554;6.736;2023-07-13T12:52:15;101266.00;;;20.80
37536;BMP180;23379;51.554;6.736;2023-07-13T12:54:41;101220.00;;;20.30
37536;BMP180;23379;51.554;6.736;2023-07-13T12:57:13;101263.00;;;20.60
37536;BMP180;23379;51.554;6.736;2023-07-13T12:59:41;101246.00;;;20.80
37536;BMP180;23379;51.554;6.736;2023-07-13T13:02:39;101262.00;;;20.70
37536;BMP180;23379;51.554;6.736;2023-07-13T13:05:05;101237.00;;;20.90
37536;BMP180;23379;51.554;6.736;2023-07-13T13:07:31;101226.00;;;21.20
37536;BMP180;23379;51.554;6.736;2023-07-13T13:09:56;101238.00;;;21.20
37536;BMP180;23379;51.554;6.736;2023-07-13T13:12:22;101241.00;;;21.10
37536;BMP180;23379;51.554;6.736;2023-07-13T13:14:47;101236.00;;;21.30
37536;BMP180;23379;51.554;6.736;2023-07-13T13:17:22;101247.00;;;21.40
37536;BMP180;23379;51.554;6.736;2023-07-13T13:19:50;101242.00;;;22.00
37536;BMP180;23379;51.554;6.736;2023-07-13T13:22:18;101251.00;;;22.50
37536;BMP180;23379;51.554;6.736;2023-07-13T13:24:43;101239.00;;;22.70
37536;BMP180;23379;51.554;6.736;2023-07-13T13:27:15;101232.00;;;22.40
37536;BMP180;23379;51.554;6.736;2023-07-13T13:29:41;101238.00;;;23.30
37536;BMP180;23379;51.554;6.736;2023-07-13T13:32:10;101243.00;;;23.30
37536;BMP180;23379;51.554;6.736;2023-07-13T13:34:36;101171.00;;;23.00
37536;BMP180;23379;51.554;6.736;2023-07-13T13:37:02;101235.00;;;23.10
37536;BMP180;23379;51.554;6.736;2023-07-13T13:39:29;101248.00;;;22.60
37536;BMP180;23379;51.554;6.736;2023-07-13T13:41:56;101256.00;;;22.50
37536;BMP180;23379;51.554;6.736;2023-07-13T13:44:22;101246.00;;;21.90
37536;BMP180;23379;51.554;6.736;2023-07-13T13:46:51;101253.00;;;21.90
37536;BMP180;23379;51.554;6.736;2023-07-13T13:49:26;101244.00;;;21.60
37536;BMP180;23379;51.554;6.736;2023-07-13T13:51:53;101254.00;;;21.10
37536;BMP180;23379;51.554;6.736;2023-07-13T13:54:20;101256.00;;;21.30
37536;BMP180;23379;51.554;6.736;2023-07-13T13:56:48;101258.00;;;21.20
37536;BMP180;23379;51.554;6.736;2023-07-13T13:59:13;101249.00;;;21.40
37536;BMP180;23379;51.554;6.736;2023-07-13T14:01:40;101247.00;;;21.60
37536;BMP180;23379;51.554;6.736;2023-07-13T14:04:13;101252.00;;;21.70
37536;BMP180;23379;51.554;6.736;2023-07-13T14:06:39;101260.00;;;22.20
37536;BMP180;23379;51.554;6.736;2023-07-13T14:09:09;101254.00;;;22.10
37536;BMP180;23379;51.554;6.736;2023-07-13T14:11:35;101244.00;;;22.40
37536;BMP180;23379;51.554;6.736;2023-07-13T14:14:01;101245.00;;;22.40
37536;BMP180;23379;51.554;6.736;2023-07-13T14:16:33;101245.00;;;21.60
37536;BMP180;23379;51.554;6.736;2023-07-13T14:18:59;101237.00;;;21.70
37536;BMP180;23379;51.554;6.736;2023-07-13T14:21:27;101244.00;;;21.80
37536;BMP180;23379;51.554;6.736;2023-07-13T14:23:53;101243.00;;;21.80
37536;BMP180;23379;51.554;6.736;2023-07-13T14:26:24;101242.00;;;21.80
37536;BMP180;23379;51.554;6.736;2023-07-13T14:28:53;101237.00;;;22.30
37536;BMP180;23379;51.554;6.736;2023-07-13T14:31:29;101237.00;;;23.30
37536;BMP180;23379;51.554;6.736;2023-07-13T14:33:54;101203.00;;;23.80
37536;BMP180;23379;51.554;6.736;2023-07-13T14:36:25;101232.00;;;24.10
37536;BMP180;23379;51.554;6.736;2023-07-13T14:38:51;101236.00;;;24.40
37536;BMP180;23379;51.554;6.736;2023-07-13T14:41:16;101209.00;;;24.40
37536;BMP180;23379;51.554;6.736;2023-07-13T14:43:42;101168.00;;;24.20
37536;BMP180;23379;51.554;6.736;2023-07-13T14:46:19;101211.00;;;23.80